Home > Products > Valid Products > MTR

000
SAUS43 KEAX 302159
MTRCDJ
METAR KCDJ 302152Z AUTO 00000KT 30/19 A2989 RMK AO1 SLP107 T03000194





000
SAUS43 KEAX 302059
MTRCDJ
METAR KCDJ 302052Z AUTO 00000KT 30/20 A2990 RMK AO1 SLP111 T03000200
58009





000
SAUS43 KEAX 301959
MTRCDJ
METAR KCDJ 301952Z AUTO 00000KT 29/20 A2992 RMK AO1 SLP116 T02890200





000
SAUS43 KEAX 301859
MTRCDJ
METAR KCDJ 301852Z AUTO 00000KT 29/20 A2993 RMK AO1 SLP120 T02940200





000
SAUS43 KEAX 301759
MTRCDJ
METAR KCDJ 301752Z AUTO VRB05KT 29/21 A2993 RMK AO1 SLP121 T02890206
10289 20200 50002





000
SAUS43 KEAX 301659
MTRCDJ
METAR KCDJ 301652Z AUTO 00000KT 27/21 A2993 RMK AO1 SLP123 T02720206





000
SAUS43 KEAX 301559
MTRCDJ
METAR KCDJ 301552Z AUTO VRB03KT 26/21 A2993 RMK AO1 SLP122 T02610206





000
SAUS43 KEAX 301459
MTRCDJ
METAR KCDJ 301452Z AUTO 00000KT 26/21 A2992 RMK AO1 SLP120 T02560206
51006





000
SAUS43 KEAX 301358
MTRCDJ
METAR KCDJ 301352Z AUTO 21003KT 24/21 A2992 RMK AO1 SLP120 T02390206





000
SAUS43 KEAX 301259
MTRCDJ
METAR KCDJ 301252Z AUTO 00000KT 22/20 A2992 RMK AO1 SLP120 T02220200





000
SAUS43 KEAX 301159
MTRCDJ
METAR KCDJ 301152Z AUTO 00000KT 21/19 A2991 RMK AO1 SLP116 70031
T02060194 10228 20200 53009





000
SAUS43 KEAX 301059
MTRCDJ
METAR KCDJ 301052Z AUTO 00000KT 22/19 A2989 RMK AO1 SLP110 T02170194





000
SAUS43 KEAX 300959
MTRCDJ
METAR KCDJ 300952Z AUTO VRB03KT 22/19 A2988 RMK AO1 SLP106 T02170194





000
SAUS43 KEAX 300900
MTRCDJ
METAR KCDJ 300852Z AUTO 00000KT 21/19 A2988 RMK AO1 SLP106 T02060189
53001





000
SAUS43 KEAX 300759
MTRCDJ
METAR KCDJ 300752Z AUTO 19003KT 22/19 A2986 RMK AO1 SLP100 T02170194





000
SAUS43 KEAX 300658
MTRCDJ
METAR KCDJ 300652Z AUTO 18005KT 22/19 A2987 RMK AO1 SLP102 T02170194





000
SAUS43 KEAX 300559
MTRCDJ
METAR KCDJ 300552Z AUTO VRB06KT 22/19 A2988 RMK AO1 SLP104 60004
T02220194 10261 20217 402890217 53014





000
SAUS43 KEAX 300459
MTRCDJ
METAR KCDJ 300452Z AUTO 20008KT 22/18 A2986 RMK AO1 SLP098 T02220178





000
SAUS43 KEAX 300359
MTRCDJ
METAR KCDJ 300352Z AUTO 18007KT 23/19 A2984 RMK AO1 SLP092 P0003
T02280189





000
SAUS43 KEAX 300259
MTRCDJ
METAR KCDJ 300252Z AUTO 17004KT 24/21 A2983 RMK AO1 SLP089 60001
T02390206 53004





000
SAUS43 KEAX 300159
MTRCDJ
METAR KCDJ 300152Z AUTO 17004KT 23/21 A2983 RMK AO1 SLP088 P0001
T02330206





000
SAUS43 KEAX 300059
MTRCDJ
METAR KCDJ 300052Z AUTO 00000KT 24/21 A2982 RMK AO1 SLP086 T02390211





000
SAUS43 KEAX 292359
MTRCDJ
METAR KCDJ 292352Z AUTO 19005KT 26/21 A2982 RMK AO1 SLP085 60027
T02610211 10278 20228 58001





000
SAUS43 KEAX 292259
MTRCDJ
METAR KCDJ 292252Z AUTO VRB06KT 26/21 A2982 RMK AO1 SLP085 T02610206





000
SAUS43 KEAX 292159
MTRCDJ
METAR KCDJ 292152Z AUTO 19004KT 26/21 A2983 RMK AO1 SLP087 T02610211





000
SAUS43 KEAX 292059
MTRCDJ
METAR KCDJ 292052Z AUTO 17004KT 25/22 A2982 RMK AO1 SLP087 60027
T02500217 58007





000
SAUS43 KEAX 291959
MTRCDJ
METAR KCDJ 291952Z AUTO 20004KT 24/22 A2983 RMK AO1 SLP091 T02390222





000
SAUS43 KEAX 291859
MTRCDJ
METAR KCDJ 291852Z AUTO 21007KT 23/21 A2987 RMK AO1 SLP103 P0027
T02330211





000
SAUS43 KEAX 291759
MTRCDJ
METAR KCDJ 291752Z AUTO 17007G15KT 28/21 A2984 RMK AO1 SLP092
T02780211 10289 20217 58014





000
SAUS43 KEAX 291659
MTRCDJ
METAR KCDJ 291652Z AUTO 19008KT 28/21 A2987 RMK AO1 SLP100 T02780211





000
SAUS43 KEAX 291559
MTRCDJ
METAR KCDJ 291552Z AUTO 18006KT 28/21 A2988 RMK AO1 SLP104 T02780211





000
SAUS43 KEAX 291459
MTRCDJ
METAR KCDJ 291452Z AUTO 18009KT 26/20 A2989 RMK AO1 SLP106 T02610200
58000





000
SAUS43 KEAX 291359
MTRCDJ
METAR KCDJ 291352Z AUTO 15008KT 24/19 A2989 RMK AO1 SLP107 T02440194





000
SAUS43 KEAX 291259
MTRCDJ
METAR KCDJ 291252Z AUTO 17004KT 23/19 A2989 RMK AO1 SLP108 T02280189





000
SAUS43 KEAX 291159
MTRCDJ
METAR KCDJ 291152Z AUTO 15005KT 22/18 A2989 RMK AO1 SLP107 P0001
60001 70043 T02220183 10244 20217 53003





000
SAUS43 KEAX 291059
MTRCDJ
METAR KCDJ 291052Z AUTO 16003KT 22/19 A2988 RMK AO1 SLP102 T02220189





000
SAUS43 KEAX 290959
MTRCDJ
METAR KCDJ 290952Z AUTO 13003KT 23/20 A2987 RMK AO1 SLP101 T02280200





000
SAUS43 KEAX 290859
MTRCDJ
METAR KCDJ 290852Z AUTO 14003KT 23/21 A2988 RMK AO1 SLP102 T02280211
56012





000
SAUS43 KEAX 290759
MTRCDJ
METAR KCDJ 290752Z AUTO 12003KT 24/22 A2988 RMK AO1 SLP104 T02390222





000
SAUS43 KEAX 290659
MTRCDJ
METAR KCDJ 290652Z AUTO 13003KT 24/22 A2990 RMK AO1 SLP111 T02440222





000
SAUS43 KEAX 290559
MTRCDJ
METAR KCDJ 290552Z AUTO 00000KT 24/23 A2991 RMK AO1 SLP116 T02440228
10294 20239 403110228 51006





000
SAUS43 KEAX 290459
MTRCDJ
METAR KCDJ 290452Z AUTO 00000KT 25/23 A2991 RMK AO1 SLP116 T02500228





000
SAUS43 KEAX 290359
MTRCDJ
METAR KCDJ 290352Z AUTO 00000KT 24/23 A2991 RMK AO1 SLP114 T02440228





000
SAUS43 KEAX 290259
MTRCDJ
METAR KCDJ 290252Z AUTO 11005KT 26/22 A2990 RMK AO1 SLP109 T02610222
53003





000
SAUS43 KEAX 290159
MTRCDJ
METAR KCDJ 290152Z AUTO 12004KT 27/22 A2988 RMK AO1 SLP105 T02720217





000
SAUS43 KEAX 290059
MTRCDJ
METAR KCDJ 290052Z AUTO 00000KT 27/23 A2989 RMK AO1 SLP107 T02720228





000
SAUS43 KEAX 282358
MTRCDJ
METAR KCDJ 282352Z AUTO 16004KT 30/23 A2989 RMK AO1 SLP106 T03000228
10311 20239 56010





000
SAUS43 KEAX 282259
MTRCDJ
METAR KCDJ 282252Z AUTO 17004KT 31/24 A2989 RMK AO1 SLP107 T03110239





000
SAUS43 KEAX 282159
MTRCDJ
METAR KCDJ 282152Z AUTO 16007KT 31/23 A2991 RMK AO1 SLP112 T03110233





000
SAUS43 KEAX 282059
MTRCDJ
METAR KCDJ 282052Z AUTO 13005KT 31/24 A2992 RMK AO1 SLP116 T03060244
58028





000
SAUS43 KEAX 281959
MTRCDJ
METAR KCDJ 281952Z AUTO 13006KT 29/23 A2995 RMK AO1 SLP128 T02890233





000
SAUS43 KEAX 281859
MTRCDJ
METAR KCDJ 281852Z AUTO 14006KT 27/23 A2997 RMK AO1 SLP137 T02670228





000
SAUS43 KEAX 281759
MTRCDJ
METAR KCDJ 281752Z AUTO 16004KT 24/23 A3000 RMK AO1 SLP148 P0019
60042 T02390228 10250 20228 50000





000
SAUS43 KEAX 281659
MTRCDJ
METAR KCDJ 281652Z AUTO 00000KT 23/22 A3001 RMK AO1 SLP152 P0023
T02330222





000
SAUS43 KEAX 281559
MTRCDJ
METAR KCDJ 281552Z AUTO 11003KT 24/22 A3001 RMK AO1 SLP150 T02440217





000
SAUS43 KEAX 281459
MTRCDJ
METAR KCDJ 281452Z AUTO 14004KT 24/22 A3000 RMK AO1 SLP147 T02440217
50001





000
SAUS43 KEAX 281358
MTRCDJ
METAR KCDJ 281352Z AUTO 11005KT 24/21 A3000 RMK AO1 SLP148 T02390211





000
SAUS43 KEAX 281259
MTRCDJ
METAR KCDJ 281252Z AUTO 11004KT 23/21 A3000 RMK AO1 SLP147 T02330211





000
SAUS43 KEAX 281159
MTRCDJ
METAR KCDJ 281152Z AUTO 11004KT 23/21 A3000 RMK AO1 SLP146 70061
T02280211 10233 20228 56005





000
SAUS43 KEAX 281058
MTRCDJ
METAR KCDJ 281052Z AUTO VRB03KT 23/22 A3000 RMK AO1 SLP145 T02280217





000
SAUS43 KEAX 280959
MTRCDJ
METAR KCDJ 280952Z AUTO 10003KT 23/22 A3000 RMK AO1 SLP147 T02330217





000
SAUS43 KEAX 280859
MTRCDJ
METAR KCDJ 280852Z AUTO VRB03KT 23/22 A3001 RMK AO1 SLP150 T02330217
56017





000
SAUS43 KEAX 280759
MTRCDJ
METAR KCDJ 280752Z AUTO 09003KT 23/22 A3002 RMK AO1 SLP154 T02330217





000
SAUS43 KEAX 280659
MTRCDJ
METAR KCDJ 280652Z AUTO 11004KT 23/22 A3004 RMK AO1 SLP160 T02330217





000
SAUS43 KEAX 280559
MTRCDJ
METAR KCDJ 280552Z AUTO 05003KT 23/21 A3006 RMK AO1 SLP170 60001
T02330211 10267 20233 402780211 56007





000
SAUS43 KEAX 280459
MTRCDJ
METAR KCDJ 280452Z AUTO 05004KT 23/21 A3007 RMK AO1 SLP170 T02330211





000
SAUS43 KEAX 280359
MTRCDJ
METAR KCDJ 280352Z AUTO 05003KT 23/22 A3007 RMK AO1 SLP173 T02330217





000
SAUS43 KEAX 280259
MTRCDJ
METAR KCDJ 280252Z AUTO 04003KT 24/22 A3009 RMK AO1 SLP177 60001
T02390217 52010





000
SAUS43 KEAX 280159
MTRCDJ
METAR KCDJ 280152Z AUTO 04003KT 23/22 A3008 RMK AO1 SLP174 P0001
T02330217





000
SAUS43 KEAX 280058
MTRCDJ
METAR KCDJ 280052Z AUTO 00000KT 25/22 A3007 RMK AO1 SLP170 T02500217





000
SAUS43 KEAX 272359
MTRCDJ
METAR KCDJ 272352Z AUTO 06003KT 27/22 A3006 RMK AO1 SLP165 T02670217
10278 20233 56015





000
SAUS43 KEAX 272258
MTRCDJ
METAR KCDJ 272252Z AUTO 06003KT 28/22 A3006 RMK AO1 SLP168 T02780217





    US Dept of Commerce
    National Oceanic and Atmospheric Administration
    National Weather Service
    1325 East West Highway
    Silver Spring, MD 20910
    Page Author: NWS Internet Services Team
Disclaimer
Information Quality
Credits
Glossary
Privacy Policy
Freedom of Information Act (FOIA)
About Us
Career Opportunities